Time,TemperatureF,DewpointF,PressureIn,WindDirection,WindDirectionDegrees,WindSpeedMPH,WindSpeedGustMPH,Humidity,HourlyPrecipIn,Conditions,Clouds,dailyrainin,SoftwareType,DateUTC
2013-02-20 00:00:00,29.0,14.0,30.07,SW,222,5.0,5.0,53,0.00,,,0.06,Wunderground v.1.15,2013-02-20 05:00:00,
2013-02-20 00:05:00,28.8,14.2,30.07,WNW,288,4.0,11.0,54,0.00,,,0.06,Wunderground v.1.15,2013-02-20 05:05:00,
2013-02-20 00:10:00,28.8,13.8,30.08,West,270,5.0,5.0,53,0.00,,,0.06,Wunderground v.1.15,2013-02-20 05:10:00,
2013-02-20 00:20:00,28.8,14.2,30.08,West,270,4.0,17.0,54,0.00,,,0.06,Wunderground v.1.15,2013-02-20 05:20:00,
2013-02-20 00:29:00,28.8,14.2,30.08,West,272,4.0,17.0,54,0.00,,,0.06,Wunderground v.1.15,2013-02-20 05:29:00,
2013-02-20 00:35:00,29.0,14.4,30.08,WSW,256,4.0,17.0,54,0.00,,,0.06,Wunderground v.1.15,2013-02-20 05:35:00,
2013-02-20 00:45:00,28.8,14.6,30.08,WSW,248,4.0,6.0,55,0.00,,,0.06,Wunderground v.1.15,2013-02-20 05:45:00,
2013-02-20 00:55:00,28.8,15.5,30.09,West,260,3.0,16.0,57,0.00,,,0.00,Wunderground v.1.15,2013-02-20 05:55:00,
2013-02-20 01:05:00,28.7,16.2,30.09,West,267,3.0,16.0,59,0.00,,,0.00,Wunderground v.1.15,2013-02-20 06:05:00,
2013-02-20 01:15:00,28.4,15.1,30.09,WNW,285,4.0,13.0,57,0.00,,,0.00,Wunderground v.1.15,2013-02-20 06:15:00,
2013-02-20 01:20:00,28.4,14.7,30.09,WNW,292,3.0,3.0,56,0.00,,,0.00,Wunderground v.1.15,2013-02-20 06:20:00,
2013-02-20 01:30:00,28.1,14.4,30.10,WNW,285,3.0,3.0,56,0.00,,,0.00,Wunderground v.1.15,2013-02-20 06:30:00,
2013-02-20 01:40:00,28.1,14.0,30.10,WNW,295,3.0,13.0,55,0.00,,,0.00,Wunderground v.1.15,2013-02-20 06:40:00,
2013-02-20 01:50:00,28.1,14.0,30.10,West,275,4.0,13.0,55,0.00,,,0.00,Wunderground v.1.15,2013-02-20 06:50:00,
2013-02-20 02:00:00,27.9,13.8,30.10,West,265,4.0,13.0,55,0.00,,,0.00,Wunderground v.1.15,2013-02-20 07:00:00,
2013-02-20 02:09:00,27.8,13.7,30.10,West,265,3.0,3.0,55,0.00,,,0.00,Wunderground v.1.15,2013-02-20 07:09:00,
2013-02-20 02:19:00,27.8,13.7,30.10,WNW,287,2.0,13.0,55,0.00,,,0.00,Wunderground v.1.15,2013-02-20 07:19:00,
2013-02-20 02:25:00,27.8,13.7,30.10,West,277,2.0,13.0,55,0.00,,,0.00,Wunderground v.1.15,2013-02-20 07:25:00,
2013-02-20 02:35:00,27.8,14.1,30.10,West,278,2.0,12.0,56,0.00,,,0.00,Wunderground v.1.15,2013-02-20 07:35:00,
2013-02-20 02:40:00,27.8,14.5,30.10,SW,232,2.0,12.0,57,0.00,,,0.00,Wunderground v.1.15,2013-02-20 07:40:00,
2013-02-20 02:50:00,27.6,14.3,30.10,West,281,2.0,2.0,57,0.00,,,0.00,Wunderground v.1.15,2013-02-20 07:50:00,
2013-02-20 03:00:00,27.6,14.7,30.10,West,261,2.0,12.0,58,0.00,,,0.00,Wunderground v.1.15,2013-02-20 08:00:00,
2013-02-20 03:05:00,27.6,14.7,30.10,West,264,2.0,12.0,58,0.00,,,0.00,Wunderground v.1.15,2013-02-20 08:05:00,
2013-02-20 03:15:00,27.3,14.1,30.10,WNW,287,3.0,6.0,57,0.00,,,0.00,Wunderground v.1.15,2013-02-20 08:15:00,
2013-02-20 03:20:00,27.3,13.7,30.10,West,265,3.0,8.0,56,0.00,,,0.00,Wunderground v.1.15,2013-02-20 08:20:00,
2013-02-20 03:30:00,27.2,13.6,30.10,WNW,292,2.0,10.0,56,0.00,,,0.00,Wunderground v.1.15,2013-02-20 08:30:00,
2013-02-20 03:40:00,27.0,13.8,30.11,West,275,4.0,4.0,57,0.00,,,0.00,Wunderground v.1.15,2013-02-20 08:40:00,
2013-02-20 03:50:00,27.0,13.8,30.11,WSW,253,3.0,3.0,57,0.00,,,0.00,Wunderground v.1.15,2013-02-20 08:50:00,
2013-02-20 03:59:00,27.0,14.2,30.12,WNW,285,3.0,3.0,58,0.00,,,0.00,Wunderground v.1.15,2013-02-20 08:59:00,
2013-02-20 04:05:00,27.0,14.6,30.12,West,278,3.0,7.0,59,0.00,,,0.00,Wunderground v.1.15,2013-02-20 09:05:00,
2013-02-20 04:10:00,26.9,13.7,30.12,West,271,3.0,3.0,57,0.00,,,0.00,Wunderground v.1.15,2013-02-20 09:10:00,
2013-02-20 04:20:00,26.7,13.5,30.12,WSW,258,2.0,13.0,57,0.00,,,0.00,Wunderground v.1.15,2013-02-20 09:20:00,
2013-02-20 04:30:00,26.4,12.4,30.13,West,265,3.0,3.0,55,0.00,,,0.00,Wunderground v.1.15,2013-02-20 09:30:00,
2013-02-20 04:40:00,26.3,11.9,30.13,WNW,299,4.0,13.0,54,0.00,,,0.00,Wunderground v.1.15,2013-02-20 09:40:00,
2013-02-20 04:50:00,26.4,12.4,30.13,WNW,282,3.0,13.0,55,0.00,,,0.00,Wunderground v.1.15,2013-02-20 09:50:00,
2013-02-20 04:59:00,26.3,11.5,30.14,West,280,4.0,13.0,53,0.00,,,0.00,Wunderground v.1.15,2013-02-20 09:59:00,
2013-02-20 05:09:00,26.3,11.5,30.14,WNW,295,4.0,4.0,53,0.00,,,0.00,Wunderground v.1.15,2013-02-20 10:09:00,
2013-02-20 05:15:00,26.3,11.5,30.14,West,278,4.0,14.0,53,0.00,,,0.00,Wunderground v.1.15,2013-02-20 10:15:00,
2013-02-20 05:25:00,26.3,11.5,30.15,WNW,284,4.0,14.0,53,0.00,,,0.00,Wunderground v.1.15,2013-02-20 10:25:00,
2013-02-20 05:30:00,26.3,11.9,30.15,WSW,253,2.0,2.0,54,0.00,,,0.00,Wunderground v.1.15,2013-02-20 10:30:00,
2013-02-20 05:39:00,26.1,11.7,30.15,WSW,256,3.0,3.0,54,0.00,,,0.00,Wunderground v.1.15,2013-02-20 10:39:00,
2013-02-20 05:45:00,26.1,12.1,30.15,WSW,256,4.0,4.0,55,0.00,,,0.00,Wunderground v.1.15,2013-02-20 10:45:00,
2013-02-20 05:50:00,26.0,12.4,30.15,West,270,4.0,4.0,56,0.00,,,0.00,Wunderground v.1.15,2013-02-20 10:50:00,
2013-02-20 06:00:00,25.8,12.6,30.15,WNW,294,2.0,16.0,57,0.00,,,0.00,Wunderground v.1.15,2013-02-20 11:00:00,
2013-02-20 06:09:00,25.7,12.2,30.16,West,260,4.0,13.0,56,0.00,,,0.00,Wunderground v.1.15,2013-02-20 11:09:00,
2013-02-20 06:19:00,25.4,11.5,30.16,WNW,291,4.0,4.0,55,0.00,,,0.00,Wunderground v.1.15,2013-02-20 11:19:00,
2013-02-20 06:25:00,25.4,11.5,30.17,WSW,243,3.0,6.0,55,0.00,,,0.00,Wunderground v.1.15,2013-02-20 11:25:00,
2013-02-20 06:35:00,25.4,11.0,30.17,WSW,248,3.0,14.0,54,0.00,,,0.00,Wunderground v.1.15,2013-02-20 11:35:00,
2013-02-20 06:45:00,25.1,10.8,30.17,West,271,4.0,9.0,54,0.00,,,0.00,Wunderground v.1.15,2013-02-20 11:45:00,
2013-02-20 06:50:00,25.1,10.8,30.17,SW,223,4.0,14.0,54,0.00,,,0.00,Wunderground v.1.15,2013-02-20 11:50:00,
2013-02-20 07:00:00,25.1,10.8,30.17,WSW,248,3.0,3.0,54,0.00,,,0.00,Wunderground v.1.15,2013-02-20 12:00:00,
2013-02-20 07:09:00,25.0,11.1,30.18,WSW,248,2.0,2.0,55,0.00,,,0.00,Wunderground v.1.15,2013-02-20 12:09:00,
2013-02-20 07:19:00,25.0,11.1,30.18,WSW,257,2.0,12.0,55,0.00,,,0.00,Wunderground v.1.15,2013-02-20 12:19:00,
2013-02-20 07:25:00,25.0,11.1,30.19,WNW,291,3.0,12.0,55,0.00,,,0.00,Wunderground v.1.15,2013-02-20 12:25:00,
2013-02-20 07:35:00,25.0,11.1,30.19,WNW,296,3.0,8.0,55,0.00,,,0.00,Wunderground v.1.15,2013-02-20 12:35:00,
2013-02-20 07:45:00,25.1,11.2,30.19,West,277,2.0,8.0,55,0.00,,,0.00,Wunderground v.1.15,2013-02-20 12:45:00,
2013-02-20 07:55:00,25.1,11.6,30.19,WNW,295,2.0,8.0,56,0.00,,,0.00,Wunderground v.1.15,2013-02-20 12:55:00,
2013-02-20 08:00:00,25.1,11.6,30.19,West,261,3.0,8.0,56,0.00,,,0.00,Wunderground v.1.15,2013-02-20 13:00:00,
2013-02-20 08:09:00,25.1,12.4,30.20,WSW,253,2.0,11.0,58,0.00,,,0.00,Wunderground v.1.15,2013-02-20 13:09:00,
2013-02-20 08:19:00,25.1,13.2,30.20,West,268,2.0,11.0,60,0.00,,,0.00,Wunderground v.1.15,2013-02-20 13:19:00,
2013-02-20 08:25:00,25.3,13.7,30.20,WSW,256,3.0,11.0,61,0.00,,,0.00,Wunderground v.1.15,2013-02-20 13:25:00,
2013-02-20 08:35:00,25.3,13.3,30.20,West,271,3.0,4.0,60,0.00,,,0.00,Wunderground v.1.15,2013-02-20 13:35:00,
2013-02-20 08:40:00,25.3,13.3,30.20,WSW,258,3.0,8.0,60,0.00,,,0.00,Wunderground v.1.15,2013-02-20 13:40:00,
2013-02-20 08:50:00,25.3,13.0,30.20,West,265,2.0,2.0,59,0.00,,,0.00,Wunderground v.1.15,2013-02-20 13:50:00,
2013-02-20 09:00:00,25.3,12.6,30.20,WSW,248,2.0,8.0,58,0.00,,,0.00,Wunderground v.1.15,2013-02-20 14:00:00,
2013-02-20 09:09:00,25.4,12.7,30.22,West,261,3.0,9.0,58,0.00,,,0.00,Wunderground v.1.15,2013-02-20 14:09:00,
2013-02-20 09:14:00,25.6,12.9,30.22,SSW,205,2.0,9.0,58,0.00,,,0.00,Wunderground v.1.15,2013-02-20 14:14:00,
2013-02-20 09:20:00,25.7,11.7,30.22,WSW,244,3.0,3.0,55,0.00,,,0.00,Wunderground v.1.15,2013-02-20 14:20:00,
2013-02-20 09:30:00,26.4,11.1,30.22,WNW,296,3.0,3.0,52,0.00,,,0.00,Wunderground v.1.15,2013-02-20 14:30:00,
2013-02-20 09:39:00,27.2,10.5,30.22,West,265,4.0,4.0,49,0.00,,,0.00,Wunderground v.1.15,2013-02-20 14:39:00,
2013-02-20 09:49:00,26.7,11.0,30.22,West,275,4.0,4.0,51,0.00,,,0.00,Wunderground v.1.15,2013-02-20 14:49:00,
2013-02-20 09:55:00,27.2,11.4,30.22,WNW,291,5.0,5.0,51,0.00,,,0.00,Wunderground v.1.15,2013-02-20 14:55:00,
2013-02-20 10:05:00,27.2,11.4,30.22,West,265,3.0,13.0,51,0.00,,,0.00,Wunderground v.1.15,2013-02-20 15:05:00,
2013-02-20 10:15:00,27.0,11.7,30.22,WSW,254,4.0,13.0,52,0.00,,,0.00,Wunderground v.1.15,2013-02-20 15:15:00,
2013-02-20 10:20:00,27.2,12.3,30.22,WNW,289,4.0,4.0,53,0.00,,,0.00,Wunderground v.1.15,2013-02-20 15:20:00,
2013-02-20 10:25:00,27.5,12.6,30.21,West,278,4.0,13.0,53,0.00,,,0.00,Wunderground v.1.15,2013-02-20 15:25:00,
2013-02-20 10:30:00,27.6,12.2,30.21,WNW,296,3.0,3.0,52,0.00,,,0.00,Wunderground v.1.15,2013-02-20 15:30:00,
2013-02-20 10:39:00,27.6,12.7,30.21,WNW,295,4.0,4.0,53,0.00,,,0.00,Wunderground v.1.15,2013-02-20 15:39:00,
2013-02-20 10:45:00,27.6,12.7,30.21,WNW,288,4.0,11.0,53,0.00,,,0.00,Wunderground v.1.15,2013-02-20 15:45:00,
2013-02-20 10:55:00,27.8,12.9,30.22,WNW,284,3.0,11.0,53,0.00,,,0.00,Wunderground v.1.15,2013-02-20 15:55:00,
2013-02-20 11:05:00,27.9,13.0,30.22,WNW,285,2.0,13.0,53,0.00,,,0.00,Wunderground v.1.15,2013-02-20 16:05:00,
2013-02-20 11:15:00,28.2,13.2,30.22,WNW,284,2.0,13.0,53,0.00,,,0.00,Wunderground v.1.15,2013-02-20 16:15:00,
2013-02-20 11:20:00,28.4,13.4,30.22,West,281,2.0,13.0,53,0.00,,,0.00,Wunderground v.1.15,2013-02-20 16:20:00,
2013-02-20 11:30:00,28.4,13.0,30.23,West,281,3.0,13.0,52,0.00,,,0.00,Wunderground v.1.15,2013-02-20 16:30:00,
2013-02-20 11:40:00,28.7,12.4,30.23,West,268,4.0,4.0,50,0.00,,,0.00,Wunderground v.1.15,2013-02-20 16:40:00,
2013-02-20 11:49:00,28.7,12.4,30.23,NW,311,5.0,5.0,50,0.00,,,0.00,Wunderground v.1.15,2013-02-20 16:49:00,
2013-02-20 11:59:00,29.4,12.6,30.23,West,267,4.0,11.0,49,0.00,,,0.00,Wunderground v.1.15,2013-02-20 16:59:00,
2013-02-20 12:05:00,29.5,12.7,30.23,WNW,287,4.0,13.0,49,0.00,,,0.00,Wunderground v.1.15,2013-02-20 17:05:00,
2013-02-20 12:15:00,30.1,13.2,30.23,West,267,4.0,4.0,49,0.00,,,0.00,Wunderground v.1.15,2013-02-20 17:15:00,
2013-02-20 12:20:00,30.7,13.3,30.23,West,280,4.0,13.0,48,0.00,,,0.00,Wunderground v.1.15,2013-02-20 17:20:00,
2013-02-20 12:30:00,31.3,13.9,30.23,WSW,253,4.0,4.0,48,0.00,,,0.00,Wunderground v.1.15,2013-02-20 17:30:00,
2013-02-20 12:40:00,32.1,13.6,30.22,West,280,4.0,13.0,46,0.00,,,0.00,Wunderground v.1.15,2013-02-20 17:40:00,
2013-02-20 12:49:00,32.1,14.1,30.22,WNW,289,3.0,3.0,47,0.00,,,0.00,Wunderground v.1.15,2013-02-20 17:49:00,
2013-02-20 13:00:00,32.7,14.7,30.21,West,270,4.0,13.0,47,0.00,,,0.00,Wunderground v.1.15,2013-02-20 18:00:00,
2013-02-20 13:09:00,32.9,13.3,30.21,WNW,287,4.0,13.0,44,0.00,,,0.00,Wunderground v.1.15,2013-02-20 18:09:00,
2013-02-20 13:15:00,33.1,15.0,30.21,NW,304,3.0,13.0,47,0.00,,,0.00,Wunderground v.1.15,2013-02-20 18:15:00,
2013-02-20 13:25:00,32.2,14.2,30.21,WNW,294,4.0,9.0,47,0.00,,,0.00,Wunderground v.1.15,2013-02-20 18:25:00,
2013-02-20 13:35:00,32.9,13.3,30.21,WNW,282,5.0,14.0,44,0.00,,,0.00,Wunderground v.1.15,2013-02-20 18:35:00,
2013-02-20 13:40:00,33.5,14.4,30.21,WSW,243,5.0,5.0,45,0.00,,,0.00,Wunderground v.1.15,2013-02-20 18:40:00,
2013-02-20 13:50:00,33.8,13.6,30.21,WNW,285,4.0,4.0,43,0.00,,,0.00,Wunderground v.1.15,2013-02-20 18:50:00,
2013-02-20 14:00:00,33.8,14.2,30.20,West,265,4.0,4.0,44,0.00,,,0.00,Wunderground v.1.15,2013-02-20 19:00:00,
2013-02-20 14:09:00,34.4,13.6,30.20,WSW,243,4.0,4.0,42,0.00,,,0.00,Wunderground v.1.15,2013-02-20 19:09:00,
2013-02-20 14:15:00,34.3,14.1,30.20,West,272,5.0,6.0,43,0.00,,,0.00,Wunderground v.1.15,2013-02-20 19:15:00,
2013-02-20 14:25:00,34.1,13.9,30.20,WNW,295,4.0,10.0,43,0.00,,,0.00,Wunderground v.1.15,2013-02-20 19:25:00,
2013-02-20 14:30:00,34.3,13.6,30.20,WNW,282,3.0,19.0,42,0.00,,,0.00,Wunderground v.1.15,2013-02-20 19:30:00,
2013-02-20 14:40:00,34.6,13.3,30.20,WNW,285,4.0,17.0,41,0.00,,,0.00,Wunderground v.1.15,2013-02-20 19:40:00,
2013-02-20 14:50:00,34.0,13.3,30.20,NW,319,5.0,5.0,42,0.00,,,0.00,Wunderground v.1.15,2013-02-20 19:50:00,
2013-02-20 15:00:00,34.9,12.4,30.20,WNW,289,4.0,17.0,39,0.00,,,0.00,Wunderground v.1.15,2013-02-20 20:00:00,
2013-02-20 15:10:00,34.6,12.7,30.19,WSW,253,4.0,16.0,40,0.00,,,0.00,Wunderground v.1.15,2013-02-20 20:10:00,
2013-02-20 15:19:00,34.4,13.1,30.19,WNW,282,5.0,5.0,41,0.00,,,0.00,Wunderground v.1.15,2013-02-20 20:19:00,
2013-02-20 15:25:00,35.0,14.2,30.19,West,267,4.0,16.0,42,0.00,,,0.00,Wunderground v.1.15,2013-02-20 20:25:00,
2013-02-20 15:35:00,35.0,14.2,30.19,NNW,330,2.0,16.0,42,0.00,,,0.00,Wunderground v.1.15,2013-02-20 20:35:00,
2013-02-20 15:45:00,34.6,13.3,30.19,West,280,3.0,12.0,41,0.00,,,0.00,Wunderground v.1.15,2013-02-20 20:45:00,
2013-02-20 15:55:00,34.4,12.5,30.20,WNW,287,3.0,12.0,40,0.00,,,0.00,Wunderground v.1.15,2013-02-20 20:55:00,
2013-02-20 16:00:00,34.6,13.3,30.20,WNW,284,3.0,12.0,41,0.00,,,0.00,Wunderground v.1.15,2013-02-20 21:00:00,
2013-02-20 16:10:00,34.3,13.0,30.21,WNW,296,5.0,5.0,41,0.00,,,0.00,Wunderground v.1.15,2013-02-20 21:10:00,
2013-02-20 16:20:00,34.1,13.4,30.21,WSW,243,4.0,11.0,42,0.00,,,0.00,Wunderground v.1.15,2013-02-20 21:20:00,
2013-02-20 16:30:00,34.4,13.1,30.21,WSW,258,3.0,3.0,41,0.00,,,0.00,Wunderground v.1.15,2013-02-20 21:30:00,
2013-02-20 16:39:00,34.6,12.7,30.21,WNW,284,3.0,16.0,40,0.00,,,0.00,Wunderground v.1.15,2013-02-20 21:39:00,
2013-02-20 16:49:00,34.4,13.1,30.21,West,272,2.0,16.0,41,0.00,,,0.00,Wunderground v.1.15,2013-02-20 21:49:00,
2013-02-20 16:59:00,34.1,12.8,30.21,WNW,289,4.0,4.0,41,0.00,,,0.00,Wunderground v.1.15,2013-02-20 21:59:00,
2013-02-20 17:05:00,34.3,13.0,30.21,West,281,3.0,5.0,41,0.00,,,0.00,Wunderground v.1.15,2013-02-20 22:05:00,
2013-02-20 17:10:00,34.1,12.8,30.22,NW,306,3.0,14.0,41,0.00,,,0.00,Wunderground v.1.15,2013-02-20 22:10:00,
2013-02-20 17:20:00,33.8,12.6,30.22,WNW,287,4.0,4.0,41,0.00,,,0.00,Wunderground v.1.15,2013-02-20 22:20:00,
2013-02-20 17:30:00,33.5,12.8,30.22,WNW,288,4.0,4.0,42,0.00,,,0.00,Wunderground v.1.15,2013-02-20 22:30:00,
2013-02-20 17:40:00,32.9,12.3,30.22,WNW,289,3.0,17.0,42,0.00,,,0.00,Wunderground v.1.15,2013-02-20 22:40:00,
2013-02-20 17:49:00,32.2,12.2,30.22,WNW,296,4.0,4.0,43,0.00,,,0.00,Wunderground v.1.15,2013-02-20 22:49:00,
2013-02-20 17:55:00,31.9,11.9,30.22,WNW,299,3.0,6.0,43,0.00,,,0.00,Wunderground v.1.15,2013-02-20 22:55:00,
2013-02-20 18:05:00,31.5,12.1,30.22,NW,309,3.0,3.0,44,0.00,,,0.00,Wunderground v.1.15,2013-02-20 23:05:00,
2013-02-20 18:15:00,31.2,12.3,30.23,WNW,299,2.0,13.0,45,0.00,,,0.00,Wunderground v.1.15,2013-02-20 23:15:00,
2013-02-20 18:25:00,30.9,12.5,30.24,WNW,298,2.0,13.0,46,0.00,,,0.00,Wunderground v.1.15,2013-02-20 23:25:00,
2013-02-20 18:30:00,30.7,12.3,30.24,WNW,282,2.0,2.0,46,0.00,,,0.00,Wunderground v.1.15,2013-02-20 23:30:00,
2013-02-20 18:40:00,30.6,12.2,30.24,WNW,287,2.0,2.0,46,0.00,,,0.00,Wunderground v.1.15,2013-02-20 23:40:00,
2013-02-20 18:49:00,30.3,12.5,30.24,WNW,285,0.0,12.0,47,0.00,,,0.00,Wunderground v.1.15,2013-02-20 23:49:00,
2013-02-20 18:59:00,30.1,12.7,30.24,WNW,292,1.0,12.0,48,0.00,,,0.00,Wunderground v.1.15,2013-02-20 23:59:00,
2013-02-20 19:05:00,30.1,13.2,30.24,WNW,292,0.0,12.0,49,0.00,,,0.00,Wunderground v.1.15,2013-02-21 00:05:00,
2013-02-20 19:15:00,30.0,13.6,30.25,NW,325,1.0,6.0,50,0.00,,,0.00,Wunderground v.1.15,2013-02-21 00:15:00,
2013-02-20 19:25:00,29.5,13.1,30.27,West,278,1.0,6.0,50,0.00,,,0.00,Wunderground v.1.15,2013-02-21 00:25:00,
2013-02-20 19:30:00,29.5,13.6,30.27,NW,315,1.0,1.0,51,0.00,,,0.00,Wunderground v.1.15,2013-02-21 00:30:00,
2013-02-20 19:40:00,29.1,13.6,30.27,NW,316,0.0,8.0,52,0.00,,,0.00,Wunderground v.1.15,2013-02-21 00:40:00,
2013-02-20 19:50:00,28.8,13.4,30.27,North,0,2.0,8.0,52,0.00,,,0.00,Wunderground v.1.15,2013-02-21 00:50:00,
2013-02-20 20:00:00,28.5,13.5,30.26,NNE,17,1.0,1.0,53,0.00,,,0.00,Wunderground v.1.15,2013-02-21 01:00:00,
2013-02-20 20:09:00,28.1,13.6,30.26,North,7,2.0,2.0,54,0.00,,,0.00,Wunderground v.1.15,2013-02-21 01:09:00,
2013-02-20 20:19:00,27.2,13.6,30.26,NNE,24,3.0,3.0,56,0.00,,,0.00,Wunderground v.1.15,2013-02-21 01:19:00,
2013-02-20 20:25:00,26.9,13.7,30.27,NNE,20,3.0,8.0,57,0.00,,,0.00,Wunderground v.1.15,2013-02-21 01:25:00,
2013-02-20 20:35:00,26.6,13.4,30.27,NNE,23,2.0,8.0,57,0.00,,,0.00,Wunderground v.1.15,2013-02-21 01:35:00,
2013-02-20 20:40:00,26.4,13.2,30.28,NNE,23,2.0,2.0,57,0.00,,,0.00,Wunderground v.1.15,2013-02-21 01:40:00,
2013-02-20 20:50:00,26.1,13.3,30.28,NNE,16,1.0,1.0,58,0.00,,,0.00,Wunderground v.1.15,2013-02-21 01:50:00,
2013-02-20 20:59:00,25.8,13.0,30.28,North,7,1.0,8.0,58,0.00,,,0.00,Wunderground v.1.15,2013-02-21 01:59:00,
2013-02-20 21:09:00,25.4,12.3,30.27,NNE,13,3.0,3.0,57,0.00,,,0.00,Wunderground v.1.15,2013-02-21 02:09:00,
2013-02-20 21:15:00,25.3,12.2,30.27,North,10,2.0,7.0,57,0.00,,,0.00,Wunderground v.1.15,2013-02-21 02:15:00,
2013-02-20 21:25:00,25.1,12.4,30.27,NNE,27,1.0,7.0,58,0.00,,,0.00,Wunderground v.1.15,2013-02-21 02:25:00,
2013-02-20 21:34:00,25.0,12.7,30.27,NNE,25,1.0,7.0,59,0.00,,,0.00,Wunderground v.1.15,2013-02-21 02:34:00,
2013-02-20 21:40:00,25.0,12.7,30.27,NNE,25,1.0,7.0,59,0.00,,,0.00,Wunderground v.1.15,2013-02-21 02:40:00,
2013-02-20 21:49:00,24.8,12.5,30.27,NNE,18,1.0,7.0,59,0.00,,,0.00,Wunderground v.1.15,2013-02-21 02:49:00,
2013-02-20 21:59:00,24.7,12.4,30.29,North,11,2.0,2.0,59,0.00,,,0.00,Wunderground v.1.15,2013-02-21 02:59:00,
2013-02-20 22:05:00,24.5,12.2,30.29,North,11,1.0,5.0,59,0.00,,,0.00,Wunderground v.1.15,2013-02-21 03:05:00,
2013-02-20 22:15:00,24.4,12.5,30.29,North,11,1.0,5.0,60,0.00,,,0.00,Wunderground v.1.15,2013-02-21 03:15:00,
2013-02-20 22:20:00,24.2,12.3,30.29,North,11,1.0,5.0,60,0.00,,,0.00,Wunderground v.1.15,2013-02-21 03:20:00,
2013-02-20 22:30:00,24.1,12.2,30.29,North,7,1.0,5.0,60,0.00,,,0.00,Wunderground v.1.15,2013-02-21 03:30:00,
2013-02-20 22:40:00,23.8,11.9,30.29,North,8,1.0,1.0,60,0.00,,,0.00,Wunderground v.1.15,2013-02-21 03:40:00,
2013-02-20 22:50:00,23.6,11.7,30.29,North,3,1.0,4.0,60,0.00,,,0.00,Wunderground v.1.15,2013-02-21 03:50:00,
2013-02-20 23:00:00,23.5,12.0,30.30,North,3,1.0,1.0,61,0.00,,,0.00,Wunderground v.1.15,2013-02-21 04:00:00,
2013-02-20 23:05:00,23.3,11.8,30.30,North,11,1.0,5.0,61,0.00,,,0.00,Wunderground v.1.15,2013-02-21 04:05:00,
2013-02-20 23:10:00,23.2,11.7,30.29,North,11,1.0,5.0,61,0.00,,,0.00,Wunderground v.1.15,2013-02-21 04:10:00,
2013-02-20 23:19:00,23.0,11.9,30.29,NNE,28,2.0,2.0,62,0.00,,,0.00,Wunderground v.1.15,2013-02-21 04:19:00,
2013-02-20 23:25:00,22.9,11.8,30.29,NNE,28,2.0,5.0,62,0.00,,,0.00,Wunderground v.1.15,2013-02-21 04:25:00,
2013-02-20 23:35:00,22.9,11.8,30.29,NNE,21,1.0,5.0,62,0.00,,,0.00,Wunderground v.1.15,2013-02-21 04:35:00,
2013-02-20 23:45:00,22.7,12.0,30.28,NNE,17,1.0,5.0,63,0.00,,,0.00,Wunderground v.1.15,2013-02-21 04:45:00,
2013-02-20 23:55:00,22.5,11.8,30.28,NNE,14,1.0,5.0,63,0.00,,,0.00,Wunderground v.1.15,2013-02-21 04:55:00,